sensor_id;sensor_type;location;lat;lon;timestamp;P1;durP1;ratioP1;P2;durP2;ratioP2
215;SDS011;64590;48.81286795;9.14184224;2023-03-19T00:00:43;20.47;;;5.93;;
215;SDS011;64590;48.81286795;9.14184224;2023-03-19T00:03:09;12.80;;;5.37;;
215;SDS011;64590;48.81286795;9.14184224;2023-03-19T00:05:36;8.77;;;4.90;;
215;SDS011;64590;48.81286795;9.14184224;2023-03-19T00:08:03;11.00;;;4.30;;
215;SDS011;64590;48.81286795;9.14184224;2023-03-19T00:10:30;9.87;;;4.30;;
215;SDS011;64590;48.81286795;9.14184224;2023-03-19T00:12:58;17.13;;;6.80;;
215;SDS011;64590;48.81286795;9.14184224;2023-03-19T00:15:25;15.53;;;7.63;;
215;SDS011;64590;48.81286795;9.14184224;2023-03-19T00:17:51;19.53;;;8.47;;
215;SDS011;64590;48.81286795;9.14184224;2023-03-19T00:20:18;14.93;;;7.00;;
215;SDS011;64590;48.81286795;9.14184224;2023-03-19T00:22:46;9.07;;;4.10;;
215;SDS011;64590;48.81286795;9.14184224;2023-03-19T00:25:12;9.50;;;5.47;;
215;SDS011;64590;48.81286795;9.14184224;2023-03-19T00:27:39;14.13;;;7.30;;
215;SDS011;64590;48.81286795;9.14184224;2023-03-19T00:30:08;16.37;;;8.07;;
215;SDS011;64590;48.81286795;9.14184224;2023-03-19T00:32:35;14.60;;;7.67;;
215;SDS011;64590;48.81286795;9.14184224;2023-03-19T00:35:03;17.40;;;6.40;;
215;SDS011;64590;48.81286795;9.14184224;2023-03-19T00:37:31;12.30;;;7.10;;
215;SDS011;64590;48.81286795;9.14184224;2023-03-19T00:39:58;14.30;;;5.93;;
215;SDS011;64590;48.81286795;9.14184224;2023-03-19T00:42:25;10.60;;;5.30;;
215;SDS011;64590;48.81286795;9.14184224;2023-03-19T00:44:51;19.13;;;7.30;;
215;SDS011;64590;48.81286795;9.14184224;2023-03-19T00:47:19;13.50;;;5.80;;
215;SDS011;64590;48.81286795;9.14184224;2023-03-19T00:49:46;14.57;;;5.60;;
215;SDS011;64590;48.81286795;9.14184224;2023-03-19T00:52:13;15.07;;;7.30;;
215;SDS011;64590;48.81286795;9.14184224;2023-03-19T00:54:40;17.40;;;6.83;;
215;SDS011;64590;48.81286795;9.14184224;2023-03-19T00:57:06;12.60;;;6.97;;
215;SDS011;64590;48.81286795;9.14184224;2023-03-19T00:59:33;16.83;;;7.70;;
215;SDS011;64590;48.81286795;9.14184224;2023-03-19T01:02:01;15.20;;;8.27;;
215;SDS011;64590;48.81286795;9.14184224;2023-03-19T01:04:29;14.53;;;7.83;;
215;SDS011;64590;48.81286795;9.14184224;2023-03-19T01:06:55;17.27;;;9.00;;
215;SDS011;64590;48.81286795;9.14184224;2023-03-19T01:09:24;15.80;;;8.90;;
215;SDS011;64590;48.81286795;9.14184224;2023-03-19T01:11:51;18.63;;;8.40;;
215;SDS011;64590;48.81286795;9.14184224;2023-03-19T01:14:18;14.27;;;7.10;;
215;SDS011;64590;48.81286795;9.14184224;2023-03-19T01:16:44;11.50;;;6.63;;
215;SDS011;64590;48.81286795;9.14184224;2023-03-19T01:19:11;14.33;;;6.40;;
215;SDS011;64590;48.81286795;9.14184224;2023-03-19T01:21:39;12.00;;;6.43;;
215;SDS011;64590;48.81286795;9.14184224;2023-03-19T01:24:13;12.63;;;6.67;;
215;SDS011;64590;48.81286795;9.14184224;2023-03-19T01:26:40;12.33;;;6.53;;
215;SDS011;64590;48.81286795;9.14184224;2023-03-19T01:29:15;18.40;;;6.90;;
215;SDS011;64590;48.81286795;9.14184224;2023-03-19T01:31:42;17.63;;;8.03;;
215;SDS011;64590;48.81286795;9.14184224;2023-03-19T01:34:32;18.77;;;8.27;;
215;SDS011;64590;48.81286795;9.14184224;2023-03-19T01:37:07;17.57;;;10.00;;
215;SDS011;64590;48.81286795;9.14184224;2023-03-19T01:39:35;17.27;;;8.50;;
215;SDS011;64590;48.81286795;9.14184224;2023-03-19T01:42:05;12.77;;;6.80;;
215;SDS011;64590;48.81286795;9.14184224;2023-03-19T01:44:36;16.10;;;7.10;;
215;SDS011;64590;48.81286795;9.14184224;2023-03-19T01:47:25;11.47;;;5.50;;
215;SDS011;64590;48.81286795;9.14184224;2023-03-19T01:50:23;15.57;;;6.50;;
215;SDS011;64590;48.81286795;9.14184224;2023-03-19T01:53:09;12.40;;;6.40;;
215;SDS011;64590;48.81286795;9.14184224;2023-03-19T01:55:49;15.93;;;6.10;;
215;SDS011;64590;48.81286795;9.14184224;2023-03-19T01:58:33;16.37;;;6.30;;
215;SDS011;64590;48.81286795;9.14184224;2023-03-19T02:01:13;13.77;;;5.60;;
215;SDS011;64590;48.81286795;9.14184224;2023-03-19T02:03:44;11.03;;;5.90;;
215;SDS011;64590;48.81286795;9.14184224;2023-03-19T02:06:16;9.43;;;5.23;;
215;SDS011;64590;48.81286795;9.14184224;2023-03-19T02:08:47;9.73;;;4.90;;
215;SDS011;64590;48.81286795;9.14184224;2023-03-19T02:11:15;10.07;;;5.23;;
215;SDS011;64590;48.81286795;9.14184224;2023-03-19T02:13:42;10.70;;;4.87;;
215;SDS011;64590;48.81286795;9.14184224;2023-03-19T02:16:08;10.20;;;5.30;;
215;SDS011;64590;48.81286795;9.14184224;2023-03-19T02:18:37;11.00;;;5.10;;
215;SDS011;64590;48.81286795;9.14184224;2023-03-19T02:21:04;8.00;;;4.37;;
215;SDS011;64590;48.81286795;9.14184224;2023-03-19T02:23:36;10.87;;;4.20;;
215;SDS011;64590;48.81286795;9.14184224;2023-03-19T02:26:14;6.53;;;4.23;;
215;SDS011;64590;48.81286795;9.14184224;2023-03-19T02:28:43;7.00;;;4.30;;
215;SDS011;64590;48.81286795;9.14184224;2023-03-19T02:31:16;7.80;;;4.10;;
215;SDS011;64590;48.81286795;9.14184224;2023-03-19T02:33:55;11.80;;;4.90;;
215;SDS011;64590;48.81286795;9.14184224;2023-03-19T02:36:26;9.23;;;5.40;;
215;SDS011;64590;48.81286795;9.14184224;2023-03-19T02:38:54;8.53;;;5.00;;
215;SDS011;64590;48.81286795;9.14184224;2023-03-19T02:41:25;7.53;;;4.83;;
215;SDS011;64590;48.81286795;9.14184224;2023-03-19T02:43:52;8.60;;;5.00;;
215;SDS011;64590;48.81286795;9.14184224;2023-03-19T02:46:19;7.73;;;5.27;;
215;SDS011;64590;48.81286795;9.14184224;2023-03-19T02:48:46;8.00;;;5.27;;
215;SDS011;64590;48.81286795;9.14184224;2023-03-19T02:51:13;10.80;;;5.43;;
215;SDS011;64590;48.81286795;9.14184224;2023-03-19T02:53:39;8.20;;;5.10;;
215;SDS011;64590;48.81286795;9.14184224;2023-03-19T02:56:06;8.00;;;5.20;;
215;SDS011;64590;48.81286795;9.14184224;2023-03-19T02:58:35;7.60;;;5.10;;
215;SDS011;64590;48.81286795;9.14184224;2023-03-19T03:01:01;9.90;;;5.50;;
215;SDS011;64590;48.81286795;9.14184224;2023-03-19T03:03:29;9.97;;;6.13;;
215;SDS011;64590;48.81286795;9.14184224;2023-03-19T03:05:56;11.73;;;5.87;;
215;SDS011;64590;48.81286795;9.14184224;2023-03-19T03:08:23;11.73;;;6.07;;
215;SDS011;64590;48.81286795;9.14184224;2023-03-19T03:10:50;8.37;;;5.83;;
215;SDS011;64590;48.81286795;9.14184224;2023-03-19T03:13:16;10.77;;;6.30;;
215;SDS011;64590;48.81286795;9.14184224;2023-03-19T03:15:44;9.47;;;5.50;;
215;SDS011;64590;48.81286795;9.14184224;2023-03-19T03:18:11;8.97;;;5.80;;
215;SDS011;64590;48.81286795;9.14184224;2023-03-19T03:20:37;9.40;;;6.20;;
215;SDS011;64590;48.81286795;9.14184224;2023-03-19T03:23:04;10.50;;;5.60;;
215;SDS011;64590;48.81286795;9.14184224;2023-03-19T03:25:31;9.30;;;6.20;;
215;SDS011;64590;48.81286795;9.14184224;2023-03-19T03:27:57;9.23;;;5.97;;
215;SDS011;64590;48.81286795;9.14184224;2023-03-19T03:30:24;10.67;;;6.40;;
215;SDS011;64590;48.81286795;9.14184224;2023-03-19T03:32:52;11.10;;;6.47;;
215;SDS011;64590;48.81286795;9.14184224;2023-03-19T03:35:19;10.17;;;6.43;;
215;SDS011;64590;48.81286795;9.14184224;2023-03-19T03:37:47;12.67;;;6.47;;
215;SDS011;64590;48.81286795;9.14184224;2023-03-19T03:40:14;13.67;;;6.47;;
215;SDS011;64590;48.81286795;9.14184224;2023-03-19T03:42:41;11.40;;;6.27;;
215;SDS011;64590;48.81286795;9.14184224;2023-03-19T03:45:09;9.70;;;6.47;;
215;SDS011;64590;48.81286795;9.14184224;2023-03-19T03:47:36;10.30;;;6.50;;
215;SDS011;64590;48.81286795;9.14184224;2023-03-19T03:50:05;11.03;;;6.50;;
215;SDS011;64590;48.81286795;9.14184224;2023-03-19T03:52:35;10.30;;;6.40;;
215;SDS011;64590;48.81286795;9.14184224;2023-03-19T03:55:02;8.53;;;5.80;;
215;SDS011;64590;48.81286795;9.14184224;2023-03-19T03:57:29;11.60;;;6.70;;
215;SDS011;64590;48.81286795;9.14184224;2023-03-19T03:59:55;10.07;;;6.33;;
215;SDS011;64590;48.81286795;9.14184224;2023-03-19T04:02:22;11.37;;;6.60;;
215;SDS011;64590;48.81286795;9.14184224;2023-03-19T04:04:49;9.93;;;5.90;;
215;SDS011;64590;48.81286795;9.14184224;2023-03-19T04:07:17;11.67;;;6.67;;
215;SDS011;64590;48.81286795;9.14184224;2023-03-19T04:09:46;9.73;;;6.43;;
215;SDS011;64590;48.81286795;9.14184224;2023-03-19T04:12:15;12.37;;;6.90;;
215;SDS011;64590;48.81286795;9.14184224;2023-03-19T04:14:42;8.83;;;6.07;;
215;SDS011;64590;48.81286795;9.14184224;2023-03-19T04:17:09;9.00;;;5.90;;
215;SDS011;64590;48.81286795;9.14184224;2023-03-19T04:19:37;12.57;;;6.60;;
215;SDS011;64590;48.81286795;9.14184224;2023-03-19T04:22:03;9.13;;;6.53;;
215;SDS011;64590;48.81286795;9.14184224;2023-03-19T04:24:33;13.67;;;6.70;;
215;SDS011;64590;48.81286795;9.14184224;2023-03-19T04:27:00;12.00;;;7.10;;
215;SDS011;64590;48.81286795;9.14184224;2023-03-19T04:29:27;10.27;;;6.83;;
215;SDS011;64590;48.81286795;9.14184224;2023-03-19T04:31:53;11.50;;;7.07;;
215;SDS011;64590;48.81286795;9.14184224;2023-03-19T04:34:20;11.63;;;6.80;;
215;SDS011;64590;48.81286795;9.14184224;2023-03-19T04:36:47;11.80;;;7.20;;
215;SDS011;64590;48.81286795;9.14184224;2023-03-19T04:39:14;11.10;;;7.07;;
215;SDS011;64590;48.81286795;9.14184224;2023-03-19T04:41:42;10.70;;;7.00;;
215;SDS011;64590;48.81286795;9.14184224;2023-03-19T04:44:24;11.60;;;7.10;;
215;SDS011;64590;48.81286795;9.14184224;2023-03-19T04:46:51;11.43;;;7.33;;
215;SDS011;64590;48.81286795;9.14184224;2023-03-19T04:49:19;10.33;;;7.20;;
215;SDS011;64590;48.81286795;9.14184224;2023-03-19T04:51:47;12.53;;;7.17;;
215;SDS011;64590;48.81286795;9.14184224;2023-03-19T04:54:14;9.93;;;6.97;;
215;SDS011;64590;48.81286795;9.14184224;2023-03-19T04:56:41;11.47;;;7.10;;
215;SDS011;64590;48.81286795;9.14184224;2023-03-19T04:59:08;13.27;;;6.90;;
215;SDS011;64590;48.81286795;9.14184224;2023-03-19T05:01:35;11.80;;;6.60;;
215;SDS011;64590;48.81286795;9.14184224;2023-03-19T05:04:05;12.27;;;7.20;;
215;SDS011;64590;48.81286795;9.14184224;2023-03-19T05:06:33;11.60;;;6.90;;
215;SDS011;64590;48.81286795;9.14184224;2023-03-19T05:09:00;11.67;;;6.30;;
215;SDS011;64590;48.81286795;9.14184224;2023-03-19T05:11:27;11.13;;;6.57;;
215;SDS011;64590;48.81286795;9.14184224;2023-03-19T05:14:01;11.60;;;6.50;;
215;SDS011;64590;48.81286795;9.14184224;2023-03-19T05:16:37;8.80;;;5.63;;
215;SDS011;64590;48.81286795;9.14184224;2023-03-19T05:19:04;12.43;;;6.20;;
215;SDS011;64590;48.81286795;9.14184224;2023-03-19T05:21:31;9.50;;;6.47;;
215;SDS011;64590;48.81286795;9.14184224;2023-03-19T05:23:58;9.87;;;6.13;;
215;SDS011;64590;48.81286795;9.14184224;2023-03-19T05:26:26;11.17;;;6.03;;
215;SDS011;64590;48.81286795;9.14184224;2023-03-19T05:29:16;11.20;;;5.70;;
215;SDS011;64590;48.81286795;9.14184224;2023-03-19T05:31:57;10.40;;;5.67;;
215;SDS011;64590;48.81286795;9.14184224;2023-03-19T05:34:24;10.43;;;6.00;;
215;SDS011;64590;48.81286795;9.14184224;2023-03-19T05:36:51;11.60;;;6.10;;
215;SDS011;64590;48.81286795;9.14184224;2023-03-19T05:39:17;10.63;;;6.00;;
215;SDS011;64590;48.81286795;9.14184224;2023-03-19T05:41:44;10.33;;;5.97;;
215;SDS011;64590;48.81286795;9.14184224;2023-03-19T05:44:18;11.10;;;6.33;;
215;SDS011;64590;48.81286795;9.14184224;2023-03-19T05:46:56;9.47;;;5.90;;
215;SDS011;64590;48.81286795;9.14184224;2023-03-19T05:49:25;10.90;;;6.20;;
215;SDS011;64590;48.81286795;9.14184224;2023-03-19T05:51:52;10.93;;;5.73;;
215;SDS011;64590;48.81286795;9.14184224;2023-03-19T05:54:19;10.30;;;6.43;;
215;SDS011;64590;48.81286795;9.14184224;2023-03-19T05:57:06;9.20;;;5.53;;
215;SDS011;64590;48.81286795;9.14184224;2023-03-19T05:59:40;11.50;;;6.50;;
215;SDS011;64590;48.81286795;9.14184224;2023-03-19T06:02:26;13.03;;;6.53;;
215;SDS011;64590;48.81286795;9.14184224;2023-03-19T06:05:07;9.80;;;5.90;;
215;SDS011;64590;48.81286795;9.14184224;2023-03-19T06:07:34;11.77;;;6.10;;
215;SDS011;64590;48.81286795;9.14184224;2023-03-19T06:10:04;10.40;;;6.13;;
215;SDS011;64590;48.81286795;9.14184224;2023-03-19T06:12:31;10.87;;;6.17;;
215;SDS011;64590;48.81286795;9.14184224;2023-03-19T06:15:20;9.17;;;6.03;;
215;SDS011;64590;48.81286795;9.14184224;2023-03-19T06:18:04;13.00;;;6.40;;
215;SDS011;64590;48.81286795;9.14184224;2023-03-19T06:20:30;15.30;;;6.53;;
215;SDS011;64590;48.81286795;9.14184224;2023-03-19T06:22:57;12.17;;;6.00;;
215;SDS011;64590;48.81286795;9.14184224;2023-03-19T06:25:24;10.80;;;6.03;;
215;SDS011;64590;48.81286795;9.14184224;2023-03-19T06:27:51;9.93;;;5.57;;
215;SDS011;64590;48.81286795;9.14184224;2023-03-19T06:30:25;8.60;;;5.73;;
215;SDS011;64590;48.81286795;9.14184224;2023-03-19T06:32:53;10.37;;;5.80;;
215;SDS011;64590;48.81286795;9.14184224;2023-03-19T06:35:20;9.53;;;5.80;;
215;SDS011;64590;48.81286795;9.14184224;2023-03-19T06:37:48;10.30;;;6.23;;
215;SDS011;64590;48.81286795;9.14184224;2023-03-19T06:40:15;10.57;;;5.60;;
215;SDS011;64590;48.81286795;9.14184224;2023-03-19T06:42:43;9.63;;;5.97;;
215;SDS011;64590;48.81286795;9.14184224;2023-03-19T06:45:10;10.03;;;5.90;;
215;SDS011;64590;48.81286795;9.14184224;2023-03-19T06:47:41;8.17;;;5.23;;
215;SDS011;64590;48.81286795;9.14184224;2023-03-19T06:50:08;9.83;;;5.40;;
215;SDS011;64590;48.81286795;9.14184224;2023-03-19T06:52:36;8.63;;;5.77;;
215;SDS011;64590;48.81286795;9.14184224;2023-03-19T06:55:03;10.73;;;5.23;;
215;SDS011;64590;48.81286795;9.14184224;2023-03-19T06:57:30;10.90;;;4.93;;
215;SDS011;64590;48.81286795;9.14184224;2023-03-19T06:59:57;11.70;;;5.30;;
215;SDS011;64590;48.81286795;9.14184224;2023-03-19T07:02:23;8.50;;;5.10;;
215;SDS011;64590;48.81286795;9.14184224;2023-03-19T07:04:51;9.50;;;3.93;;
215;SDS011;64590;48.81286795;9.14184224;2023-03-19T07:07:18;6.93;;;4.27;;
215;SDS011;64590;48.81286795;9.14184224;2023-03-19T07:09:45;7.57;;;4.13;;
215;SDS011;64590;48.81286795;9.14184224;2023-03-19T07:12:12;11.60;;;3.80;;
215;SDS011;64590;48.81286795;9.14184224;2023-03-19T07:14:38;6.70;;;4.07;;
215;SDS011;64590;48.81286795;9.14184224;2023-03-19T07:17:05;10.67;;;3.83;;
215;SDS011;64590;48.81286795;9.14184224;2023-03-19T07:19:32;6.73;;;4.23;;
215;SDS011;64590;48.81286795;9.14184224;2023-03-19T07:22:00;7.73;;;3.90;;
215;SDS011;64590;48.81286795;9.14184224;2023-03-19T07:24:26;9.90;;;4.30;;
215;SDS011;64590;48.81286795;9.14184224;2023-03-19T07:26:53;5.93;;;3.67;;
215;SDS011;64590;48.81286795;9.14184224;2023-03-19T07:29:19;7.70;;;3.73;;
215;SDS011;64590;48.81286795;9.14184224;2023-03-19T07:31:46;6.07;;;3.97;;
215;SDS011;64590;48.81286795;9.14184224;2023-03-19T07:34:13;7.07;;;3.80;;
215;SDS011;64590;48.81286795;9.14184224;2023-03-19T07:36:39;6.20;;;3.50;;
215;SDS011;64590;48.81286795;9.14184224;2023-03-19T07:39:07;7.93;;;3.70;;
215;SDS011;64590;48.81286795;9.14184224;2023-03-19T07:41:34;8.83;;;4.00;;
215;SDS011;64590;48.81286795;9.14184224;2023-03-19T07:44:00;7.20;;;3.73;;
215;SDS011;64590;48.81286795;9.14184224;2023-03-19T07:46:27;6.40;;;3.50;;
215;SDS011;64590;48.81286795;9.14184224;2023-03-19T07:48:53;6.37;;;3.60;;
215;SDS011;64590;48.81286795;9.14184224;2023-03-19T07:51:20;6.07;;;3.60;;
215;SDS011;64590;48.81286795;9.14184224;2023-03-19T07:53:47;5.60;;;3.50;;
215;SDS011;64590;48.81286795;9.14184224;2023-03-19T07:56:14;8.90;;;3.50;;
215;SDS011;64590;48.81286795;9.14184224;2023-03-19T07:58:41;7.10;;;3.57;;
215;SDS011;64590;48.81286795;9.14184224;2023-03-19T08:01:07;8.43;;;4.27;;
215;SDS011;64590;48.81286795;9.14184224;2023-03-19T08:03:34;6.97;;;3.90;;
215;SDS011;64590;48.81286795;9.14184224;2023-03-19T08:06:01;5.77;;;3.43;;
215;SDS011;64590;48.81286795;9.14184224;2023-03-19T08:08:28;6.90;;;3.40;;
215;SDS011;64590;48.81286795;9.14184224;2023-03-19T08:10:54;7.30;;;4.43;;
215;SDS011;64590;48.81286795;9.14184224;2023-03-19T08:13:23;7.40;;;3.93;;
215;SDS011;64590;48.81286795;9.14184224;2023-03-19T08:15:49;7.57;;;4.33;;
215;SDS011;64590;48.81286795;9.14184224;2023-03-19T08:18:17;6.13;;;3.90;;
215;SDS011;64590;48.81286795;9.14184224;2023-03-19T08:20:45;8.27;;;3.87;;
215;SDS011;64590;48.81286795;9.14184224;2023-03-19T08:23:12;7.27;;;3.87;;
215;SDS011;64590;48.81286795;9.14184224;2023-03-19T08:25:38;11.50;;;3.60;;
215;SDS011;64590;48.81286795;9.14184224;2023-03-19T08:28:05;6.97;;;3.77;;
215;SDS011;64590;48.81286795;9.14184224;2023-03-19T08:30:35;7.73;;;3.80;;
215;SDS011;64590;48.81286795;9.14184224;2023-03-19T08:33:02;5.53;;;3.47;;
215;SDS011;64590;48.81286795;9.14184224;2023-03-19T08:35:29;7.43;;;3.60;;
215;SDS011;64590;48.81286795;9.14184224;2023-03-19T08:37:56;7.60;;;3.80;;
215;SDS011;64590;48.81286795;9.14184224;2023-03-19T08:40:22;10.67;;;5.93;;
215;SDS011;64590;48.81286795;9.14184224;2023-03-19T08:42:49;6.37;;;3.57;;
215;SDS011;64590;48.81286795;9.14184224;2023-03-19T08:45:16;6.87;;;3.63;;
215;SDS011;64590;48.81286795;9.14184224;2023-03-19T08:47:44;7.30;;;3.50;;
215;SDS011;64590;48.81286795;9.14184224;2023-03-19T08:50:11;7.60;;;3.70;;
215;SDS011;64590;48.81286795;9.14184224;2023-03-19T08:52:38;9.20;;;4.00;;
215;SDS011;64590;48.81286795;9.14184224;2023-03-19T08:55:05;7.03;;;3.93;;
215;SDS011;64590;48.81286795;9.14184224;2023-03-19T08:57:32;6.73;;;3.90;;
215;SDS011;64590;48.81286795;9.14184224;2023-03-19T08:59:59;10.90;;;3.83;;
215;SDS011;64590;48.81286795;9.14184224;2023-03-19T09:02:26;6.30;;;4.00;;
215;SDS011;64590;48.81286795;9.14184224;2023-03-19T09:04:54;7.40;;;3.60;;
215;SDS011;64590;48.81286795;9.14184224;2023-03-19T09:07:20;7.67;;;4.10;;
215;SDS011;64590;48.81286795;9.14184224;2023-03-19T09:09:47;7.50;;;3.47;;
215;SDS011;64590;48.81286795;9.14184224;2023-03-19T09:12:14;6.83;;;3.63;;
215;SDS011;64590;48.81286795;9.14184224;2023-03-19T09:14:42;7.77;;;3.70;;
215;SDS011;64590;48.81286795;9.14184224;2023-03-19T09:17:09;6.00;;;3.40;;
215;SDS011;64590;48.81286795;9.14184224;2023-03-19T09:19:37;10.10;;;3.80;;
215;SDS011;64590;48.81286795;9.14184224;2023-03-19T09:22:05;13.03;;;3.70;;
215;SDS011;64590;48.81286795;9.14184224;2023-03-19T09:24:32;8.00;;;3.90;;
215;SDS011;64590;48.81286795;9.14184224;2023-03-19T09:26:58;9.13;;;3.93;;
215;SDS011;64590;48.81286795;9.14184224;2023-03-19T09:29:25;7.40;;;3.73;;
215;SDS011;64590;48.81286795;9.14184224;2023-03-19T09:31:51;8.03;;;4.13;;
215;SDS011;64590;48.81286795;9.14184224;2023-03-19T09:34:18;6.70;;;3.97;;
215;SDS011;64590;48.81286795;9.14184224;2023-03-19T09:36:44;9.13;;;4.03;;
215;SDS011;64590;48.81286795;9.14184224;2023-03-19T09:39:12;6.93;;;4.20;;
215;SDS011;64590;48.81286795;9.14184224;2023-03-19T09:41:40;7.30;;;4.30;;
215;SDS011;64590;48.81286795;9.14184224;2023-03-19T09:44:25;7.93;;;4.23;;
215;SDS011;64590;48.81286795;9.14184224;2023-03-19T09:46:55;8.20;;;4.43;;
215;SDS011;64590;48.81286795;9.14184224;2023-03-19T09:49:31;7.23;;;4.70;;
215;SDS011;64590;48.81286795;9.14184224;2023-03-19T09:52:05;8.87;;;4.33;;
215;SDS011;64590;48.81286795;9.14184224;2023-03-19T09:54:41;8.00;;;4.27;;
215;SDS011;64590;48.81286795;9.14184224;2023-03-19T09:57:12;6.30;;;3.90;;
215;SDS011;64590;48.81286795;9.14184224;2023-03-19T09:59:41;7.80;;;4.10;;
215;SDS011;64590;48.81286795;9.14184224;2023-03-19T10:05:06;6.97;;;3.80;;
215;SDS011;64590;48.81286795;9.14184224;2023-03-19T10:07:47;6.90;;;3.90;;
215;SDS011;64590;48.81286795;9.14184224;2023-03-19T10:10:35;8.53;;;3.40;;
215;SDS011;64590;48.81286795;9.14184224;2023-03-19T10:13:17;5.83;;;3.17;;
215;SDS011;64590;48.81286795;9.14184224;2023-03-19T10:15:55;5.43;;;3.40;;
215;SDS011;64590;48.81286795;9.14184224;2023-03-19T10:18:27;5.50;;;3.40;;
215;SDS011;64590;48.81286795;9.14184224;2023-03-19T10:20:57;7.10;;;3.50;;
215;SDS011;64590;48.81286795;9.14184224;2023-03-19T10:23:37;6.20;;;3.20;;
215;SDS011;64590;48.81286795;9.14184224;2023-03-19T10:26:10;8.20;;;3.40;;
215;SDS011;64590;48.81286795;9.14184224;2023-03-19T10:28:39;7.90;;;3.77;;
215;SDS011;64590;48.81286795;9.14184224;2023-03-19T10:34:06;11.17;;;3.50;;
215;SDS011;64590;48.81286795;9.14184224;2023-03-19T10:36:39;7.03;;;3.53;;
215;SDS011;64590;48.81286795;9.14184224;2023-03-19T10:39:07;7.50;;;3.90;;
215;SDS011;64590;48.81286795;9.14184224;2023-03-19T10:41:40;6.00;;;3.50;;
215;SDS011;64590;48.81286795;9.14184224;2023-03-19T10:44:15;6.83;;;3.23;;
215;SDS011;64590;48.81286795;9.14184224;2023-03-19T10:46:50;6.57;;;3.50;;
215;SDS011;64590;48.81286795;9.14184224;2023-03-19T10:49:17;7.30;;;3.50;;
215;SDS011;64590;48.81286795;9.14184224;2023-03-19T10:51:44;7.10;;;3.37;;
215;SDS011;64590;48.81286795;9.14184224;2023-03-19T10:54:18;10.83;;;3.93;;
215;SDS011;64590;48.81286795;9.14184224;2023-03-19T10:56:48;10.13;;;3.90;;
215;SDS011;64590;48.81286795;9.14184224;2023-03-19T10:59:19;6.70;;;3.60;;
215;SDS011;64590;48.81286795;9.14184224;2023-03-19T11:01:48;8.07;;;3.40;;
215;SDS011;64590;48.81286795;9.14184224;2023-03-19T11:04:15;6.33;;;3.50;;
215;SDS011;64590;48.81286795;9.14184224;2023-03-19T11:06:47;5.63;;;3.40;;
215;SDS011;64590;48.81286795;9.14184224;2023-03-19T11:09:17;6.33;;;3.50;;
215;SDS011;64590;48.81286795;9.14184224;2023-03-19T11:11:52;5.00;;;3.30;;
215;SDS011;64590;48.81286795;9.14184224;2023-03-19T11:14:23;7.03;;;3.77;;
215;SDS011;64590;48.81286795;9.14184224;2023-03-19T11:16:54;6.20;;;3.70;;
215;SDS011;64590;48.81286795;9.14184224;2023-03-19T11:19:23;6.17;;;3.50;;
215;SDS011;64590;48.81286795;9.14184224;2023-03-19T11:21:52;9.13;;;3.53;;
215;SDS011;64590;48.81286795;9.14184224;2023-03-19T11:24:25;10.80;;;3.93;;
215;SDS011;64590;48.81286795;9.14184224;2023-03-19T11:26:56;8.80;;;3.40;;
215;SDS011;64590;48.81286795;9.14184224;2023-03-19T11:29:25;5.90;;;3.00;;
215;SDS011;64590;48.81286795;9.14184224;2023-03-19T11:31:53;6.73;;;3.80;;
215;SDS011;64590;48.81286795;9.14184224;2023-03-19T11:34:30;7.90;;;3.40;;
215;SDS011;64590;48.81286795;9.14184224;2023-03-19T11:37:08;6.47;;;3.67;;
215;SDS011;64590;48.81286795;9.14184224;2023-03-19T11:39:49;6.10;;;3.77;;
215;SDS011;64590;48.81286795;9.14184224;2023-03-19T11:42:29;8.13;;;4.53;;
215;SDS011;64590;48.81286795;9.14184224;2023-03-19T11:45:11;10.20;;;3.60;;
215;SDS011;64590;48.81286795;9.14184224;2023-03-19T11:47:44;8.50;;;3.70;;
215;SDS011;64590;48.81286795;9.14184224;2023-03-19T11:50:20;9.27;;;3.93;;
215;SDS011;64590;48.81286795;9.14184224;2023-03-19T11:53:00;8.97;;;4.03;;
215;SDS011;64590;48.81286795;9.14184224;2023-03-19T11:55:36;6.17;;;4.00;;
215;SDS011;64590;48.81286795;9.14184224;2023-03-19T11:58:12;6.67;;;4.10;;
215;SDS011;64590;48.81286795;9.14184224;2023-03-19T12:01:00;6.40;;;3.50;;
215;SDS011;64590;48.81286795;9.14184224;2023-03-19T12:03:38;6.20;;;3.83;;
215;SDS011;64590;48.81286795;9.14184224;2023-03-19T12:06:29;5.87;;;3.60;;
215;SDS011;64590;48.81286795;9.14184224;2023-03-19T12:09:03;7.07;;;3.90;;
215;SDS011;64590;48.81286795;9.14184224;2023-03-19T12:11:40;6.23;;;3.60;;
215;SDS011;64590;48.81286795;9.14184224;2023-03-19T12:14:18;7.10;;;3.70;;
215;SDS011;64590;48.81286795;9.14184224;2023-03-19T12:17:02;7.47;;;4.00;;
215;SDS011;64590;48.81286795;9.14184224;2023-03-19T12:19:55;8.87;;;3.90;;
215;SDS011;64590;48.81286795;9.14184224;2023-03-19T12:22:36;7.63;;;3.80;;
215;SDS011;64590;48.81286795;9.14184224;2023-03-19T12:25:17;6.23;;;4.00;;
215;SDS011;64590;48.81286795;9.14184224;2023-03-19T12:27:52;6.40;;;3.67;;
215;SDS011;64590;48.81286795;9.14184224;2023-03-19T12:30:27;6.23;;;3.50;;
215;SDS011;64590;48.81286795;9.14184224;2023-03-19T12:33:07;9.40;;;4.23;;
215;SDS011;64590;48.81286795;9.14184224;2023-03-19T12:35:40;7.00;;;3.90;;
215;SDS011;64590;48.81286795;9.14184224;2023-03-19T12:38:09;7.47;;;3.70;;
215;SDS011;64590;48.81286795;9.14184224;2023-03-19T12:40:41;7.27;;;3.87;;
215;SDS011;64590;48.81286795;9.14184224;2023-03-19T12:43:13;7.40;;;3.90;;
215;SDS011;64590;48.81286795;9.14184224;2023-03-19T12:45:45;7.80;;;3.80;;
215;SDS011;64590;48.81286795;9.14184224;2023-03-19T12:48:16;11.03;;;4.13;;
215;SDS011;64590;48.81286795;9.14184224;2023-03-19T12:50:48;7.00;;;4.20;;
215;SDS011;64590;48.81286795;9.14184224;2023-03-19T12:53:21;6.13;;;4.10;;
215;SDS011;64590;48.81286795;9.14184224;2023-03-19T12:55:56;8.77;;;4.00;;
215;SDS011;64590;48.81286795;9.14184224;2023-03-19T12:58:28;7.70;;;3.73;;
215;SDS011;64590;48.81286795;9.14184224;2023-03-19T13:01:05;7.00;;;3.63;;
215;SDS011;64590;48.81286795;9.14184224;2023-03-19T13:03:37;6.70;;;3.60;;
215;SDS011;64590;48.81286795;9.14184224;2023-03-19T13:06:11;8.20;;;3.93;;
215;SDS011;64590;48.81286795;9.14184224;2023-03-19T13:08:46;6.03;;;3.73;;
215;SDS011;64590;48.81286795;9.14184224;2023-03-19T13:11:19;7.13;;;3.63;;
215;SDS011;64590;48.81286795;9.14184224;2023-03-19T13:13:52;10.80;;;3.93;;
215;SDS011;64590;48.81286795;9.14184224;2023-03-19T13:16:27;6.57;;;3.90;;
215;SDS011;64590;48.81286795;9.14184224;2023-03-19T13:19:01;10.60;;;4.30;;
215;SDS011;64590;48.81286795;9.14184224;2023-03-19T13:21:36;11.97;;;4.37;;
215;SDS011;64590;48.81286795;9.14184224;2023-03-19T13:24:06;9.73;;;4.00;;
215;SDS011;64590;48.81286795;9.14184224;2023-03-19T13:26:40;9.93;;;5.50;;
215;SDS011;64590;48.81286795;9.14184224;2023-03-19T13:29:08;7.80;;;4.80;;